Terminal Aerodrome Forecast
Issued by NWS Cleveland, OH

Home | Current Version | Previous Version | Text Only | Print | Product List | Glossary On
Versions: 1 2 3 4 5 6 7 8 9 10 11 12 13 14 15 16 17 18 19 20 21 22
000
FTUS41 KCLE 270500
TAFTOL
TAF
KTOL 270540Z 2706/2806 32005KT P6SM BKN250
     FM270900 35005KT 4SM BR SCT005 BKN250
      TEMPO 2709/2713 2SM BR BKN005
     FM271400 01006KT P6SM SCT015
     FM271800 01006KT P6SM SCT030
     FM280000 02004KT P6SM SCT250=

USA.gov is the U.S. government's official web portal to all federal, state and local government web resources and services.